createdAt,value
2023-06-07T00:01:30.085Z,99.90
2023-06-07T00:05:33.034Z,99.90
2023-06-07T00:09:35.855Z,99.90
2023-06-07T00:13:40.071Z,99.90
2023-06-07T00:17:44.335Z,99.90
2023-06-07T00:21:47.680Z,99.90
2023-06-07T00:25:50.617Z,99.90
2023-06-07T00:29:54.816Z,99.90
2023-06-07T00:33:57.636Z,99.90
2023-06-07T00:38:00.495Z,99.90
2023-06-07T00:42:03.395Z,99.90
2023-06-07T00:46:08.253Z,99.90
2023-06-07T00:50:11.633Z,99.90
2023-06-07T00:54:18.426Z,99.90
2023-06-07T00:58:21.800Z,99.90
2023-06-07T01:02:27.412Z,99.90
2023-06-07T01:06:30.803Z,99.90
2023-06-07T01:10:33.675Z,99.90
2023-06-07T01:14:36.711Z,99.90
2023-06-07T01:18:43.620Z,99.90
2023-06-07T01:22:47.224Z,99.90
2023-06-07T01:26:53.980Z,99.90
2023-06-07T01:30:57.144Z,99.90
2023-06-07T01:35:00.190Z,99.90
2023-06-07T01:39:04.172Z,99.90
2023-06-07T01:43:08.741Z,99.90
2023-06-07T01:47:13.862Z,99.90
2023-06-07T01:51:16.687Z,99.90
2023-06-07T01:55:20.047Z,99.90
2023-06-07T01:59:30.609Z,99.90
2023-06-07T02:03:36.350Z,99.90
2023-06-07T02:07:45.946Z,99.90
2023-06-07T02:11:49.000Z,99.90
2023-06-07T02:15:53.246Z,99.90
2023-06-07T02:19:56.474Z,99.90
2023-06-07T02:23:59.386Z,99.90
2023-06-07T02:28:03.691Z,99.90
2023-06-07T02:32:08.922Z,99.90
2023-06-07T02:36:14.028Z,99.90
2023-06-07T02:40:17.065Z,99.90
2023-06-07T02:44:19.952Z,99.90
2023-06-07T02:48:24.127Z,99.90
2023-06-07T02:52:27.476Z,99.90
2023-06-07T02:56:31.318Z,99.90
2023-06-07T03:00:34.171Z,99.90
2023-06-07T03:04:39.581Z,99.90
2023-06-07T03:08:42.468Z,99.90
2023-06-07T03:12:45.311Z,99.90
2023-06-07T03:16:49.005Z,99.90
2023-06-07T03:20:53.303Z,99.90
2023-06-07T03:24:58.372Z,99.90
2023-06-07T03:29:02.023Z,99.90
2023-06-07T03:33:04.985Z,99.90
2023-06-07T03:37:09.251Z,99.90
2023-06-07T03:41:12.068Z,99.90
2023-06-07T03:45:14.910Z,99.90
2023-06-07T03:49:17.772Z,99.90
2023-06-07T03:53:21.955Z,99.90
2023-06-07T03:57:25.029Z,99.90
2023-06-07T04:01:27.910Z,99.90
2023-06-07T04:05:31.125Z,99.90
2023-06-07T04:09:35.528Z,99.90
2023-06-07T04:13:38.348Z,99.90
2023-06-07T04:17:41.219Z,99.90
2023-06-07T04:21:44.046Z,99.90
2023-06-07T04:25:48.327Z,99.90
2023-06-07T04:29:54.865Z,99.90
2023-06-07T04:34:00.510Z,99.90
2023-06-07T04:38:04.525Z,99.90
2023-06-07T04:42:10.471Z,99.90
2023-06-07T04:46:14.234Z,99.90
2023-06-07T04:50:17.588Z,99.90
2023-06-07T04:54:20.607Z,99.90
2023-06-07T04:58:24.893Z,99.90
2023-06-07T05:02:27.908Z,99.90
2023-06-07T05:06:32.334Z,99.90
2023-06-07T05:10:35.886Z,99.90
2023-06-07T05:14:41.526Z,99.90
2023-06-07T05:18:47.565Z,99.90
2023-06-07T05:22:50.621Z,99.90
2023-06-07T05:26:53.592Z,99.90
2023-06-07T05:30:57.996Z,99.90
2023-06-07T05:35:01.143Z,99.90
2023-06-07T05:39:04.359Z,99.90
2023-06-07T05:43:07.503Z,99.90
2023-06-07T05:47:12.062Z,99.90
2023-06-07T05:51:15.364Z,99.90
2023-06-07T05:55:18.338Z,99.90
2023-06-07T05:59:21.472Z,99.90
2023-06-07T06:03:26.947Z,99.90
2023-06-07T06:07:30.069Z,99.90
2023-06-07T06:11:33.370Z,99.90
2023-06-07T06:15:37.126Z,99.90
2023-06-07T06:19:42.733Z,99.90
2023-06-07T06:23:45.784Z,99.90
2023-06-07T06:27:48.979Z,99.90
2023-06-07T06:31:52.101Z,99.90
2023-06-07T06:35:56.454Z,99.90
2023-06-07T06:40:00.024Z,99.90
2023-06-07T06:44:04.184Z,99.90
2023-06-07T06:48:08.061Z,99.90
2023-06-07T06:52:12.475Z,99.90
2023-06-07T06:56:16.107Z,99.90
2023-06-07T07:00:20.219Z,99.90
2023-06-07T07:04:23.451Z,99.90
2023-06-07T07:08:28.179Z,99.90
2023-06-07T07:12:31.283Z,99.90
2023-06-07T07:16:36.919Z,99.90
2023-06-07T07:20:41.766Z,99.90
2023-06-07T07:24:46.590Z,99.90
2023-06-07T07:28:49.712Z,99.90
2023-06-07T07:32:52.845Z,99.90
2023-06-07T07:36:58.629Z,99.90
2023-06-07T07:41:02.999Z,99.90
2023-06-07T07:45:06.839Z,99.90
2023-06-07T07:49:10.559Z,99.90
2023-06-07T07:53:14.314Z,99.90
2023-06-07T07:57:18.978Z,99.90
2023-06-07T08:01:22.973Z,99.90
2023-06-07T08:05:25.963Z,99.90
2023-06-07T08:09:29.003Z,99.90
2023-06-07T08:13:33.360Z,99.90
2023-06-07T08:17:36.393Z,99.90
2023-06-07T08:21:39.646Z,99.90
2023-06-07T08:25:42.953Z,99.90
2023-06-07T08:29:47.266Z,99.90
2023-06-07T08:33:50.772Z,99.90
2023-06-07T08:37:53.835Z,99.90
2023-06-07T08:41:57.437Z,99.90
2023-06-07T08:46:04.670Z,99.90
2023-06-07T08:50:13.704Z,99.90
2023-06-07T08:54:19.867Z,99.90
2023-06-07T08:58:25.912Z,99.90
2023-06-07T09:02:30.612Z,99.90
2023-06-07T09:06:35.540Z,99.90
2023-06-07T09:10:38.592Z,99.90
2023-06-07T09:14:42.266Z,99.90
2023-06-07T09:18:48.712Z,99.90
2023-06-07T09:23:04.184Z,99.90
2023-06-07T09:27:09.194Z,99.90
2023-06-07T09:31:12.432Z,99.90
2023-06-07T09:35:18.964Z,99.90
2023-06-07T09:39:23.324Z,99.90
2023-06-07T09:43:26.335Z,99.90
2023-06-07T09:47:29.652Z,99.90
2023-06-07T09:51:42.440Z,99.90
2023-06-07T09:55:45.445Z,99.90
2023-06-07T09:59:59.494Z,99.90
2023-06-07T10:04:03.750Z,99.90
2023-06-07T10:08:10.540Z,99.90
2023-06-07T10:12:15.613Z,99.90
2023-06-07T10:16:20.044Z,99.90
2023-06-07T10:20:26.904Z,99.90
2023-06-07T10:24:34.839Z,99.90
2023-06-07T10:28:43.007Z,99.90
2023-06-07T10:32:48.818Z,99.90
2023-06-07T10:36:51.982Z,99.90
2023-06-07T10:40:58.628Z,99.90
2023-06-07T10:45:01.828Z,99.90
2023-06-07T10:49:05.435Z,99.90
2023-06-07T10:53:13.150Z,99.90
2023-06-07T10:57:33.321Z,99.90
2023-06-07T11:01:36.584Z,99.90
2023-06-07T11:06:07.649Z,99.90
2023-06-07T11:10:35.932Z,99.90
2023-06-07T11:14:40.387Z,99.90
2023-06-07T11:19:01.608Z,99.90
2023-06-07T11:23:20.611Z,99.90
2023-06-07T11:27:23.998Z,99.90
2023-06-07T11:31:28.511Z,99.90
2023-06-07T11:35:32.916Z,99.90
2023-06-07T11:39:36.071Z,99.90
2023-06-07T11:43:39.174Z,99.90
2023-06-07T11:47:43.518Z,99.90
2023-06-07T11:51:50.904Z,99.90
2023-06-07T11:55:57.111Z,99.90
2023-06-07T12:00:00.340Z,99.90
2023-06-07T12:04:04.988Z,99.90
2023-06-07T12:08:12.036Z,99.90
2023-06-07T12:12:16.796Z,99.90
2023-06-07T12:16:22.233Z,99.90
2023-06-07T12:20:29.062Z,99.90
2023-06-07T12:24:37.769Z,99.90
2023-06-07T12:28:43.302Z,99.90
2023-06-07T12:32:46.191Z,99.90
2023-06-07T12:36:51.925Z,99.90
2023-06-07T12:40:55.074Z,99.90
2023-06-07T12:44:58.180Z,99.90
2023-06-07T12:49:01.286Z,99.90
2023-06-07T12:53:05.737Z,99.90
2023-06-07T12:57:09.472Z,99.90
2023-06-07T13:01:12.692Z,99.90
2023-06-07T13:05:16.181Z,99.90
2023-06-07T13:09:21.448Z,99.90
2023-06-07T13:13:24.614Z,99.90
2023-06-07T13:17:27.731Z,99.90
2023-06-07T13:21:31.179Z,99.90
2023-06-07T13:25:35.777Z,99.90
2023-06-07T13:29:39.452Z,99.90
2023-06-07T13:33:43.158Z,99.90
2023-06-07T13:37:46.332Z,99.90
2023-06-07T13:41:51.203Z,99.90
2023-06-07T13:45:54.497Z,99.90
2023-06-07T13:49:57.637Z,99.90
2023-06-07T13:54:00.620Z,99.90
2023-06-07T13:58:04.973Z,99.90
2023-06-07T14:02:11.174Z,99.90
2023-06-07T14:06:14.193Z,99.90
2023-06-07T14:10:17.471Z,99.90
2023-06-07T14:14:22.263Z,99.90
2023-06-07T14:18:25.220Z,99.90
2023-06-07T14:22:28.363Z,99.90
2023-06-07T14:26:31.405Z,99.90
2023-06-07T14:30:35.879Z,99.90
2023-06-07T14:34:38.869Z,99.90
2023-06-07T14:38:41.842Z,99.90
2023-06-07T14:42:44.805Z,99.90
2023-06-07T14:46:49.139Z,99.90
2023-06-07T14:50:52.089Z,99.90
2023-06-07T14:54:55.307Z,99.90
2023-06-07T14:58:58.383Z,99.90
2023-06-07T15:03:02.814Z,99.90
2023-06-07T15:07:06.837Z,99.90
2023-06-07T15:11:09.905Z,99.90
2023-06-07T15:15:15.777Z,99.90
2023-06-07T15:19:20.154Z,99.90
2023-06-07T15:23:23.260Z,99.90
2023-06-07T15:27:26.299Z,99.90
2023-06-07T15:31:29.308Z,99.90
2023-06-07T15:35:33.678Z,99.90
2023-06-07T15:39:36.633Z,99.90
2023-06-07T15:43:39.651Z,99.90
2023-06-07T15:47:42.756Z,99.90
2023-06-07T15:51:47.485Z,99.90
2023-06-07T15:55:50.526Z,99.90
2023-06-07T15:59:53.533Z,99.90
2023-06-07T16:03:57.218Z,99.90
2023-06-07T16:08:07.207Z,99.90
2023-06-07T16:12:15.955Z,99.90
2023-06-07T17:01:03.255Z,99.20
2023-06-07T17:05:07.088Z,99.40
2023-06-07T17:09:10.182Z,99.90
2023-06-07T17:13:14.552Z,99.60
2023-06-07T17:17:17.586Z,99.90
2023-06-07T17:21:20.703Z,99.90
2023-06-07T17:25:23.652Z,99.90
2023-06-07T17:29:29.183Z,99.90
2023-06-07T17:33:33.077Z,99.90
2023-06-07T17:37:36.201Z,99.90
2023-06-07T17:41:39.038Z,99.90
2023-06-07T17:45:43.232Z,99.80
2023-06-07T17:49:46.062Z,99.90
2023-06-07T17:53:51.229Z,99.90
2023-06-07T17:57:54.278Z,99.90
2023-06-07T18:01:58.530Z,99.90
2023-06-07T18:06:01.419Z,99.90
2023-06-07T18:10:04.900Z,99.90
2023-06-07T18:14:08.085Z,99.90
2023-06-07T18:18:12.561Z,99.90
2023-06-07T18:22:15.515Z,99.90
2023-06-07T18:26:18.332Z,99.90
2023-06-07T18:30:21.303Z,99.90
2023-06-07T18:34:25.477Z,99.80
2023-06-07T18:38:28.300Z,99.80
2023-06-07T18:42:31.109Z,99.80
2023-06-07T18:46:34.082Z,99.60
2023-06-07T18:50:38.717Z,99.60
2023-06-07T18:54:41.539Z,99.70
2023-06-07T18:58:44.605Z,99.50
2023-06-07T19:02:47.588Z,99.50
2023-06-07T19:06:54.613Z,99.70
2023-06-07T19:10:59.205Z,99.60
2023-06-07T19:15:02.018Z,99.60
2023-06-07T19:19:04.870Z,99.70
2023-06-07T19:23:09.698Z,99.50
2023-06-07T19:27:12.583Z,99.50
2023-06-07T19:31:15.425Z,99.50
2023-06-07T19:35:18.296Z,99.40
2023-06-07T19:39:22.499Z,99.40
2023-06-07T19:43:25.456Z,99.40
2023-06-07T19:47:29.501Z,99.40
2023-06-07T19:51:33.155Z,99.30
2023-06-07T19:55:37.308Z,99.30
2023-06-07T19:59:41.117Z,99.20
2023-06-07T20:03:44.240Z,99.20
2023-06-07T20:07:47.059Z,99.20
2023-06-07T20:11:51.237Z,99.30
2023-06-07T20:15:54.111Z,99.40
2023-06-07T20:19:57.742Z,99.40
2023-06-07T20:24:00.905Z,99.50
2023-06-07T20:28:05.452Z,99.30
2023-06-07T20:32:09.473Z,99.50
2023-06-07T20:36:12.458Z,99.50
2023-06-07T20:40:15.334Z,99.90
2023-06-07T20:44:19.633Z,99.60
2023-06-07T20:48:22.545Z,99.80
2023-06-07T20:52:25.366Z,99.90
2023-06-07T20:56:28.421Z,99.90
2023-06-07T21:00:32.716Z,99.90
2023-06-07T21:04:35.953Z,99.90
2023-06-07T21:08:39.308Z,99.90
2023-06-07T21:12:42.351Z,99.90
2023-06-07T21:16:48.538Z,99.90
2023-06-07T21:20:51.742Z,99.90
2023-06-07T21:24:54.755Z,99.90
2023-06-07T21:28:57.751Z,99.90
2023-06-07T21:33:04.725Z,99.90
2023-06-07T21:37:08.024Z,99.90
2023-06-07T21:41:11.184Z,99.90
2023-06-07T21:45:14.180Z,99.90
2023-06-07T21:49:18.585Z,99.90
2023-06-07T21:53:21.572Z,99.90
2023-06-07T21:57:25.494Z,99.90
2023-06-07T22:01:28.582Z,99.90
2023-06-07T22:05:33.019Z,99.90
2023-06-07T22:09:36.625Z,99.90
2023-06-07T22:13:40.624Z,99.90
2023-06-07T22:17:45.003Z,99.90
2023-06-07T22:21:49.683Z,99.90
2023-06-07T22:25:53.704Z,99.90
2023-06-07T22:29:58.695Z,99.90
2023-06-07T22:34:04.094Z,99.90
2023-06-07T22:38:13.335Z,99.90
2023-06-07T22:42:16.732Z,99.90
2023-06-07T22:46:19.746Z,99.90
2023-06-07T22:50:22.935Z,99.90
2023-06-07T22:54:28.761Z,99.90
2023-06-07T22:58:32.077Z,99.90
2023-06-07T23:02:37.347Z,99.90
2023-06-07T23:06:40.567Z,99.90
2023-06-07T23:10:44.884Z,99.90
2023-06-07T23:14:49.472Z,99.90
2023-06-07T23:18:52.511Z,99.90
2023-06-07T23:22:57.143Z,99.90
2023-06-07T23:27:02.869Z,99.90
2023-06-07T23:31:05.813Z,99.90
2023-06-07T23:35:08.957Z,99.90
2023-06-07T23:39:11.988Z,99.90
2023-06-07T23:43:16.175Z,99.90
2023-06-07T23:47:19.169Z,99.90
2023-06-07T23:51:22.034Z,99.90
2023-06-07T23:55:24.979Z,99.90
2023-06-07T23:59:29.530Z,99.90
